createdAt,value
2017-08-21T00:01:50.060Z,2.35
2017-08-21T00:04:18.961Z,2.25
2017-08-21T00:06:47.712Z,2.17
2017-08-21T00:09:16.438Z,2.00
2017-08-21T00:11:45.192Z,2.25
2017-08-21T00:14:13.922Z,2.37
2017-08-21T00:16:42.648Z,2.12
2017-08-21T00:19:11.435Z,2.08
2017-08-21T00:21:40.236Z,2.97
2017-08-21T00:24:08.988Z,2.05
2017-08-21T00:26:37.810Z,2.05
2017-08-21T00:29:06.561Z,1.77
2017-08-21T00:31:35.363Z,1.92
2017-08-21T00:34:03.799Z,1.73
2017-08-21T00:36:32.548Z,2.28
2017-08-21T00:39:01.334Z,2.60
2017-08-21T00:41:30.080Z,2.37
2017-08-21T00:43:58.876Z,2.10
2017-08-21T00:46:27.647Z,2.12
2017-08-21T00:48:56.419Z,2.50
2017-08-21T00:51:25.187Z,2.47
2017-08-21T00:53:54.005Z,2.42
2017-08-21T00:56:22.799Z,2.25
2017-08-21T00:58:51.560Z,2.10
2017-08-21T01:01:20.362Z,2.50
2017-08-21T01:03:49.157Z,2.28
2017-08-21T01:06:17.980Z,2.20
2017-08-21T01:08:47.483Z,2.60
2017-08-21T01:11:16.300Z,2.10
2017-08-21T01:13:45.064Z,2.75
2017-08-21T01:16:13.880Z,2.12
2017-08-21T01:18:42.638Z,2.50
2017-08-21T01:21:10.814Z,2.35
2017-08-21T01:23:39.627Z,1.95
2017-08-21T01:26:08.381Z,2.00
2017-08-21T01:28:37.150Z,2.05
2017-08-21T01:31:05.997Z,2.40
2017-08-21T01:34:14.920Z,2.50
2017-08-21T01:36:43.746Z,2.30
2017-08-21T01:39:12.527Z,3.83
2017-08-21T01:41:41.278Z,2.60
2017-08-21T01:44:10.069Z,2.65
2017-08-21T01:46:38.822Z,2.15
2017-08-21T01:49:07.586Z,2.85
2017-08-21T01:51:36.355Z,3.62
2017-08-21T01:54:05.147Z,2.83
2017-08-21T01:56:33.928Z,2.80
2017-08-21T01:59:02.702Z,2.25
2017-08-21T02:01:32.275Z,2.70
2017-08-21T02:04:01.096Z,2.20
2017-08-21T02:06:29.885Z,2.58
2017-08-21T02:08:58.698Z,2.33
2017-08-21T02:11:27.430Z,2.58
2017-08-21T02:13:56.213Z,2.83
2017-08-21T02:16:25.013Z,2.75
2017-08-21T02:18:54.279Z,2.17
2017-08-21T02:21:22.998Z,2.85
2017-08-21T02:23:51.725Z,2.47
2017-08-21T02:26:20.674Z,2.80
2017-08-21T02:28:49.500Z,2.85
2017-08-21T02:31:18.337Z,3.00
2017-08-21T02:33:47.137Z,2.87
2017-08-21T02:36:15.959Z,2.60
2017-08-21T02:38:47.514Z,2.80
2017-08-21T02:41:16.267Z,2.15
2017-08-21T02:43:45.031Z,2.65
2017-08-21T02:46:13.863Z,3.03
2017-08-21T02:48:43.985Z,2.60
2017-08-21T02:51:12.777Z,2.58
2017-08-21T02:53:41.555Z,2.90
2017-08-21T02:56:10.344Z,3.45
2017-08-21T02:58:39.084Z,2.60
2017-08-21T03:01:07.891Z,2.92
2017-08-21T03:03:36.675Z,2.70
2017-08-21T03:06:05.459Z,2.33
2017-08-21T03:08:34.232Z,2.90
2017-08-21T03:11:03.012Z,3.37
2017-08-21T03:13:31.816Z,2.80
2017-08-21T03:16:00.609Z,2.33
2017-08-21T03:18:29.413Z,2.58
2017-08-21T03:20:58.181Z,2.85
2017-08-21T03:23:26.966Z,3.05
2017-08-21T03:25:55.767Z,2.50
2017-08-21T03:28:24.587Z,2.15
2017-08-21T03:30:53.401Z,2.80
2017-08-21T03:33:22.166Z,4.12
2017-08-21T03:35:50.951Z,3.00
2017-08-21T03:38:19.702Z,3.35
2017-08-21T03:40:48.477Z,2.50
2017-08-21T03:43:17.275Z,3.10
2017-08-21T03:45:46.076Z,2.50
2017-08-21T03:48:14.795Z,2.80
2017-08-21T03:50:43.573Z,3.42
2017-08-21T03:53:12.331Z,4.10
2017-08-21T03:55:41.108Z,3.10
2017-08-21T03:58:09.924Z,3.80
2017-08-21T04:00:38.655Z,3.37
2017-08-21T04:03:07.435Z,3.58
2017-08-21T04:05:36.220Z,3.20
2017-08-21T04:08:04.976Z,3.33
2017-08-21T04:10:33.721Z,3.50
2017-08-21T04:13:02.559Z,3.42
2017-08-21T04:15:31.367Z,3.78
2017-08-21T04:18:00.103Z,3.50
2017-08-21T04:20:28.844Z,3.22
2017-08-21T04:22:57.656Z,3.25
2017-08-21T04:25:26.454Z,3.12
2017-08-21T04:27:55.258Z,3.90
2017-08-21T04:30:24.099Z,3.87
2017-08-21T04:32:52.870Z,3.75
2017-08-21T04:35:21.664Z,3.78
2017-08-21T04:37:51.279Z,4.10
2017-08-21T04:40:20.068Z,3.20
2017-08-21T04:42:48.871Z,3.30
2017-08-21T04:45:17.875Z,3.22
2017-08-21T04:47:46.371Z,3.47
2017-08-21T04:50:15.170Z,3.30
2017-08-21T04:52:43.948Z,3.70
2017-08-21T04:55:12.480Z,3.20
2017-08-21T04:57:41.010Z,3.40
2017-08-21T05:00:09.551Z,2.80
2017-08-21T05:02:38.138Z,3.33
2017-08-21T05:05:06.669Z,2.80
2017-08-21T05:07:35.172Z,3.43
2017-08-21T05:10:03.720Z,3.03
2017-08-21T05:12:32.274Z,3.17
2017-08-21T05:15:00.772Z,2.30
2017-08-21T05:17:29.259Z,3.27
2017-08-21T05:19:57.788Z,3.33
2017-08-21T05:22:26.283Z,3.80
2017-08-21T05:24:54.845Z,2.43
2017-08-21T05:27:23.318Z,2.57
2017-08-21T05:29:51.776Z,3.20
2017-08-21T05:32:20.253Z,2.73
2017-08-21T05:34:48.722Z,2.40
2017-08-21T05:37:17.186Z,2.50
2017-08-21T05:39:46.451Z,2.90
2017-08-21T05:42:14.904Z,2.90
2017-08-21T05:44:43.423Z,2.20
2017-08-21T05:47:11.986Z,2.67
2017-08-21T05:49:40.450Z,2.33
2017-08-21T05:52:08.982Z,2.30
2017-08-21T05:54:37.451Z,2.93
2017-08-21T05:57:06.700Z,3.10
2017-08-21T05:59:35.175Z,2.53
2017-08-21T06:02:03.698Z,3.00
2017-08-21T06:04:32.173Z,3.17
2017-08-21T06:07:00.599Z,2.63
2017-08-21T06:09:29.033Z,2.47
2017-08-21T06:11:57.485Z,2.50
2017-08-21T06:14:25.952Z,2.37
2017-08-21T06:16:54.377Z,2.90
2017-08-21T06:19:22.825Z,2.83
2017-08-21T06:21:51.268Z,2.93
2017-08-21T06:24:19.733Z,2.50
2017-08-21T06:26:48.404Z,3.20
2017-08-21T06:29:16.910Z,2.83
2017-08-21T06:31:45.339Z,2.77
2017-08-21T06:34:13.767Z,2.63
2017-08-21T06:36:42.270Z,2.40
2017-08-21T06:39:10.781Z,2.37
2017-08-21T06:41:39.238Z,3.07
2017-08-21T06:44:07.681Z,2.23
2017-08-21T06:46:36.127Z,3.07
2017-08-21T06:49:04.560Z,2.00
2017-08-21T06:51:32.986Z,2.13
2017-08-21T06:54:01.620Z,2.30
2017-08-21T06:56:30.054Z,2.70
2017-08-21T06:58:58.549Z,2.80
2017-08-21T07:01:27.048Z,2.33
2017-08-21T07:03:55.477Z,2.47
2017-08-21T07:06:23.931Z,2.30
2017-08-21T07:08:52.379Z,2.80
2017-08-21T07:11:20.857Z,3.40
2017-08-21T07:13:49.294Z,2.77
2017-08-21T07:16:17.721Z,3.40
2017-08-21T07:18:46.329Z,2.20
2017-08-21T07:21:14.755Z,2.63
2017-08-21T07:23:43.171Z,3.10
2017-08-21T07:26:11.629Z,4.97
2017-08-21T07:28:40.047Z,2.63
2017-08-21T07:31:08.462Z,2.90
2017-08-21T07:33:36.917Z,2.13
2017-08-21T07:36:05.333Z,2.30
2017-08-21T07:38:33.740Z,2.03
2017-08-21T07:41:02.945Z,2.23
2017-08-21T07:43:31.361Z,1.60
2017-08-21T07:45:59.779Z,1.73
2017-08-21T07:48:28.215Z,1.27
2017-08-21T07:50:56.641Z,2.20
2017-08-21T07:53:25.053Z,1.47
2017-08-21T07:55:53.480Z,1.73
2017-08-21T07:58:21.892Z,1.40
2017-08-21T08:00:50.340Z,1.40
2017-08-21T08:03:18.746Z,1.77
2017-08-21T08:05:47.165Z,1.37
2017-08-21T08:08:15.606Z,1.10
2017-08-21T08:10:44.043Z,1.77
2017-08-21T08:13:12.471Z,1.30
2017-08-21T08:15:40.892Z,1.33
2017-08-21T08:18:09.291Z,1.10
2017-08-21T08:20:37.708Z,1.57
2017-08-21T08:23:06.126Z,1.67
2017-08-21T08:25:34.534Z,1.60
2017-08-21T08:28:02.950Z,1.13
2017-08-21T08:30:31.391Z,1.43
2017-08-21T08:32:59.825Z,1.10
2017-08-21T08:35:28.229Z,1.40
2017-08-21T08:37:56.654Z,1.47
2017-08-21T08:40:25.118Z,1.20
2017-08-21T08:42:53.537Z,1.57
2017-08-21T08:45:21.951Z,1.77
2017-08-21T08:47:50.401Z,1.80
2017-08-21T08:50:18.841Z,1.23
2017-08-21T08:52:47.287Z,1.23
2017-08-21T08:55:15.728Z,1.50
2017-08-21T08:57:44.193Z,1.47
2017-08-21T09:00:12.635Z,1.33
2017-08-21T09:02:41.054Z,1.50
2017-08-21T09:05:09.526Z,1.73
2017-08-21T09:07:37.971Z,1.97
2017-08-21T09:10:06.402Z,1.80
2017-08-21T09:12:34.832Z,1.57
2017-08-21T09:15:03.070Z,1.63
2017-08-21T09:17:31.508Z,1.60
2017-08-21T09:19:59.959Z,1.60
2017-08-21T09:22:28.411Z,1.70
2017-08-21T09:24:56.879Z,1.50
2017-08-21T09:27:25.357Z,2.17
2017-08-21T09:29:53.795Z,1.47
2017-08-21T09:32:22.228Z,1.10
2017-08-21T09:34:50.699Z,1.97
2017-08-21T09:37:19.135Z,1.97
2017-08-21T09:39:47.576Z,2.00
2017-08-21T09:42:16.042Z,1.37
2017-08-21T09:44:44.474Z,1.60
2017-08-21T09:47:12.894Z,1.50
2017-08-21T09:49:41.317Z,1.43
2017-08-21T09:52:09.731Z,1.53
2017-08-21T09:54:38.161Z,1.77
2017-08-21T09:57:06.590Z,2.00
2017-08-21T09:59:35.797Z,1.40
2017-08-21T10:02:05.009Z,2.00
2017-08-21T10:04:33.456Z,1.50
2017-08-21T10:07:01.862Z,1.67
2017-08-21T10:09:30.280Z,1.50
2017-08-21T10:11:58.749Z,1.70
2017-08-21T10:14:27.149Z,1.23
2017-08-21T10:16:55.580Z,1.70
2017-08-21T10:19:24.013Z,1.93
2017-08-21T10:21:52.426Z,1.80
2017-08-21T10:24:20.940Z,1.43
2017-08-21T10:26:49.599Z,2.20
2017-08-21T10:29:18.071Z,1.47
2017-08-21T10:31:46.510Z,1.53
2017-08-21T10:34:14.942Z,1.40
2017-08-21T10:36:43.402Z,1.80
2017-08-21T10:39:11.852Z,1.20
2017-08-21T10:41:40.312Z,1.20
2017-08-21T10:44:08.770Z,1.20
2017-08-21T10:46:37.228Z,1.07
2017-08-21T10:49:05.690Z,1.43
2017-08-21T10:51:34.817Z,1.30
2017-08-21T10:54:03.033Z,1.23
2017-08-21T10:56:31.444Z,1.30
2017-08-21T10:58:59.912Z,1.33
2017-08-21T11:01:28.325Z,1.60
2017-08-21T11:03:56.742Z,1.30
2017-08-21T11:06:25.169Z,1.27
2017-08-21T11:08:53.587Z,1.03
2017-08-21T11:11:22.000Z,1.57
2017-08-21T11:13:50.465Z,1.50
2017-08-21T11:16:18.953Z,1.10
2017-08-21T11:18:47.366Z,1.73
2017-08-21T11:21:15.789Z,1.47
2017-08-21T11:23:44.219Z,1.93
2017-08-21T11:26:12.617Z,1.53
2017-08-21T11:28:41.031Z,1.70
2017-08-21T11:31:09.562Z,1.40
2017-08-21T11:33:37.976Z,1.77
2017-08-21T11:36:06.397Z,1.53
2017-08-21T11:38:34.827Z,1.33
2017-08-21T11:41:03.248Z,1.70
2017-08-21T11:43:31.678Z,1.43
2017-08-21T11:46:00.087Z,1.50
2017-08-21T11:48:28.506Z,1.50
2017-08-21T11:50:56.942Z,1.80
2017-08-21T11:53:25.369Z,1.57
2017-08-21T11:55:53.862Z,1.53
2017-08-21T11:58:22.289Z,1.70
2017-08-21T12:00:50.722Z,1.40
2017-08-21T12:03:19.139Z,1.50
2017-08-21T12:05:47.538Z,1.70
2017-08-21T12:08:15.949Z,1.50
2017-08-21T12:10:44.376Z,1.70
2017-08-21T12:13:12.791Z,1.40
2017-08-21T12:15:41.293Z,1.83
2017-08-21T12:18:09.709Z,1.50
2017-08-21T12:20:38.146Z,1.53
2017-08-21T12:23:06.548Z,1.40
2017-08-21T12:25:34.957Z,1.30
2017-08-21T12:28:03.403Z,1.50
2017-08-21T12:30:31.843Z,1.43
2017-08-21T12:33:00.244Z,1.70
2017-08-21T12:35:28.685Z,1.20
2017-08-21T12:37:57.165Z,1.93
2017-08-21T12:40:25.584Z,1.30
2017-08-21T12:42:53.997Z,1.90
2017-08-21T12:45:22.450Z,1.70
2017-08-21T12:47:50.874Z,1.17
2017-08-21T12:50:19.304Z,1.73
2017-08-21T12:52:47.766Z,1.63
2017-08-21T12:55:16.271Z,1.27
2017-08-21T12:57:44.730Z,1.17
2017-08-21T13:00:13.192Z,1.30
2017-08-21T13:02:41.726Z,1.70
2017-08-21T13:05:10.182Z,1.50
2017-08-21T13:07:38.738Z,1.60
2017-08-21T13:10:07.247Z,1.40
2017-08-21T13:12:35.661Z,1.73
2017-08-21T13:15:04.095Z,1.67
2017-08-21T13:17:32.609Z,1.80
2017-08-21T13:20:01.077Z,1.57
2017-08-21T13:22:29.504Z,1.80
2017-08-21T13:24:57.942Z,2.40
2017-08-21T13:27:26.376Z,1.87
2017-08-21T13:29:55.603Z,1.40
2017-08-21T13:32:24.048Z,1.50
2017-08-21T13:34:52.494Z,1.83
2017-08-21T13:37:20.725Z,1.50
2017-08-21T13:39:49.406Z,1.80
2017-08-21T13:42:17.837Z,1.30
2017-08-21T13:44:46.392Z,1.70
2017-08-21T13:47:14.702Z,1.77
2017-08-21T13:49:43.112Z,1.43
2017-08-21T13:52:11.514Z,1.33
2017-08-21T13:54:39.929Z,1.40
2017-08-21T13:57:08.355Z,1.50
2017-08-21T13:59:36.757Z,1.40
2017-08-21T14:02:05.173Z,1.50
2017-08-21T14:04:33.586Z,1.80
2017-08-21T14:07:02.782Z,1.40
2017-08-21T14:09:31.217Z,1.53
2017-08-21T14:11:59.673Z,1.40
2017-08-21T14:14:28.070Z,2.40
2017-08-21T14:16:56.498Z,2.03
2017-08-21T14:19:24.901Z,1.40
2017-08-21T14:21:53.320Z,1.60
2017-08-21T14:24:21.752Z,1.73
2017-08-21T14:26:50.938Z,1.83
2017-08-21T14:29:19.348Z,2.13
2017-08-21T14:31:47.769Z,2.17
2017-08-21T14:34:16.179Z,1.90
2017-08-21T14:36:44.599Z,1.37
2017-08-21T14:39:13.035Z,1.87
2017-08-21T14:41:41.465Z,1.67
2017-08-21T14:44:09.882Z,1.53
2017-08-21T14:46:38.313Z,1.97
2017-08-21T14:49:06.711Z,1.60
2017-08-21T14:51:35.119Z,1.53
2017-08-21T14:54:03.570Z,1.20
2017-08-21T14:56:31.983Z,1.57
2017-08-21T14:59:00.421Z,1.97
2017-08-21T15:01:28.829Z,1.60
2017-08-21T15:03:57.233Z,1.40
2017-08-21T15:06:25.677Z,1.40
2017-08-21T15:08:54.127Z,1.60
2017-08-21T15:11:23.353Z,1.47
2017-08-21T15:13:51.583Z,1.90
2017-08-21T15:16:20.021Z,1.93
2017-08-21T15:18:48.481Z,1.83
2017-08-21T15:21:16.894Z,1.23
2017-08-21T15:23:45.293Z,1.60
2017-08-21T15:26:13.730Z,1.53
2017-08-21T15:28:42.153Z,2.77
2017-08-21T15:31:10.574Z,1.80
2017-08-21T15:33:39.006Z,2.03
2017-08-21T15:36:07.455Z,2.33
2017-08-21T15:38:35.883Z,1.60
2017-08-21T15:41:04.313Z,1.63
2017-08-21T15:43:32.723Z,1.47
2017-08-21T15:46:01.185Z,2.30
2017-08-21T15:48:29.619Z,1.50
2017-08-21T15:50:58.430Z,1.30
2017-08-21T15:53:26.881Z,2.07
2017-08-21T15:55:55.322Z,1.80
2017-08-21T15:58:23.772Z,1.63
2017-08-21T16:00:52.222Z,1.43
2017-08-21T16:03:20.703Z,1.87
2017-08-21T16:05:49.144Z,1.97
2017-08-21T16:08:17.568Z,1.67
2017-08-21T16:10:46.001Z,1.50
2017-08-21T16:13:14.428Z,2.50
2017-08-21T16:15:42.861Z,1.77
2017-08-21T16:18:11.307Z,2.03
2017-08-21T16:20:39.748Z,1.30
2017-08-21T16:23:08.174Z,1.40
2017-08-21T16:25:36.618Z,1.70
2017-08-21T16:28:05.072Z,1.77
2017-08-21T16:30:33.494Z,1.40
2017-08-21T16:33:01.959Z,1.73
2017-08-21T16:35:30.390Z,1.57
2017-08-21T16:37:58.829Z,1.90
2017-08-21T16:40:27.500Z,2.53
2017-08-21T16:42:55.957Z,1.67
2017-08-21T16:45:24.410Z,1.63
2017-08-21T16:47:52.863Z,1.97
2017-08-21T16:50:21.303Z,2.13
2017-08-21T16:52:49.755Z,1.87
2017-08-21T16:55:18.202Z,2.03
2017-08-21T16:57:46.655Z,1.60
2017-08-21T17:00:15.162Z,1.83
2017-08-21T17:02:43.615Z,2.27
2017-08-21T17:05:12.054Z,2.23
2017-08-21T17:07:40.528Z,2.37
2017-08-21T17:10:10.837Z,1.77
2017-08-21T17:12:39.288Z,1.93
2017-08-21T17:15:07.769Z,1.70
2017-08-21T17:17:36.199Z,1.67
2017-08-21T17:20:03.970Z,2.40
2017-08-21T17:22:32.437Z,1.70
2017-08-21T17:25:00.894Z,2.30
2017-08-21T17:27:29.366Z,1.70
2017-08-21T17:29:57.872Z,1.90
2017-08-21T17:32:26.300Z,2.40
2017-08-21T17:34:54.783Z,1.80
2017-08-21T17:37:23.901Z,2.70
2017-08-21T17:39:52.548Z,2.17
2017-08-21T17:42:20.982Z,2.30
2017-08-21T17:44:49.441Z,2.30
2017-08-21T17:47:18.641Z,2.70
2017-08-21T17:49:47.110Z,1.97
2017-08-21T17:52:15.627Z,2.20
2017-08-21T17:54:45.221Z,1.63
2017-08-21T17:57:13.686Z,2.63
2017-08-21T17:59:42.140Z,2.30
2017-08-21T18:02:10.574Z,3.47
2017-08-21T18:04:39.012Z,2.80
2017-08-21T18:07:07.741Z,1.97
2017-08-21T18:09:36.200Z,2.37
2017-08-21T18:12:04.675Z,2.10
2017-08-21T18:14:33.118Z,2.77
2017-08-21T18:17:01.564Z,2.53
2017-08-21T18:19:30.859Z,2.40
2017-08-21T18:22:02.211Z,1.83
2017-08-21T18:24:30.769Z,2.93
2017-08-21T18:27:00.132Z,2.57
2017-08-21T18:29:28.593Z,2.77
2017-08-21T18:31:57.051Z,2.40
2017-08-21T18:34:25.520Z,2.27
2017-08-21T18:36:53.976Z,2.53
2017-08-21T18:39:22.490Z,2.80
2017-08-21T18:41:50.944Z,2.23
2017-08-21T18:44:19.410Z,2.23
2017-08-21T18:46:47.862Z,2.50
2017-08-21T18:49:16.559Z,2.60
2017-08-21T18:51:46.872Z,2.83
2017-08-21T18:54:15.313Z,1.97
2017-08-21T18:56:43.860Z,2.37
2017-08-21T18:59:12.305Z,2.60
2017-08-21T19:01:41.974Z,3.23
2017-08-21T19:04:10.460Z,2.40
2017-08-21T19:06:38.885Z,2.37
2017-08-21T19:09:07.335Z,2.43
2017-08-21T19:11:35.838Z,2.50
2017-08-21T19:14:04.325Z,3.00
2017-08-21T19:16:33.570Z,2.70
2017-08-21T19:19:04.056Z,2.57
2017-08-21T19:21:33.447Z,2.60
2017-08-21T19:24:01.907Z,2.33
2017-08-21T19:26:30.394Z,4.10
2017-08-21T19:28:58.865Z,2.70
2017-08-21T19:31:27.300Z,2.60
2017-08-21T19:33:55.821Z,3.17
2017-08-21T19:36:24.278Z,2.47
2017-08-21T19:38:52.747Z,2.70
2017-08-21T19:41:21.206Z,3.20
2017-08-21T19:43:50.482Z,2.70
2017-08-21T19:46:18.943Z,3.73
2017-08-21T19:48:47.400Z,2.80
2017-08-21T19:51:15.892Z,2.37
2017-08-21T19:53:44.365Z,2.57
2017-08-21T19:56:12.843Z,3.90
2017-08-21T19:58:41.360Z,3.47
2017-08-21T20:01:09.835Z,3.47
2017-08-21T20:03:38.305Z,2.80
2017-08-21T20:06:06.815Z,2.50
2017-08-21T20:08:35.260Z,2.60
2017-08-21T20:11:05.094Z,2.50
2017-08-21T20:13:33.566Z,3.10
2017-08-21T20:16:04.720Z,2.87
2017-08-21T20:18:33.190Z,3.13
2017-08-21T20:21:01.649Z,2.73
2017-08-21T20:23:30.086Z,3.30
2017-08-21T20:25:58.551Z,2.53
2017-08-21T20:28:26.981Z,2.67
2017-08-21T20:30:55.442Z,2.50
2017-08-21T20:33:23.909Z,2.67
2017-08-21T20:35:52.342Z,2.70
2017-08-21T20:38:20.827Z,2.93
2017-08-21T20:40:49.327Z,2.67
2017-08-21T20:43:17.856Z,2.80
2017-08-21T20:45:46.352Z,2.80
2017-08-21T20:48:14.876Z,3.57
2017-08-21T20:50:43.693Z,2.83
2017-08-21T20:53:12.180Z,3.63
2017-08-21T20:55:40.931Z,3.35
2017-08-21T20:58:09.745Z,2.90
2017-08-21T21:00:38.441Z,3.53
2017-08-21T21:03:06.952Z,2.87
2017-08-21T21:05:35.790Z,3.05
2017-08-21T21:08:04.321Z,3.27
2017-08-21T21:10:33.092Z,3.00
2017-08-21T21:13:01.850Z,3.10
2017-08-21T21:15:31.375Z,2.95
2017-08-21T21:17:59.886Z,3.40
2017-08-21T21:20:28.656Z,2.80
2017-08-21T21:22:57.202Z,3.47
2017-08-21T21:25:25.726Z,4.27
2017-08-21T21:27:54.228Z,2.50
2017-08-21T21:30:22.821Z,2.63
2017-08-21T21:32:51.334Z,2.93
2017-08-21T21:35:20.125Z,2.60
2017-08-21T21:37:48.895Z,2.60
2017-08-21T21:40:17.645Z,3.30
2017-08-21T21:42:48.842Z,3.10
2017-08-21T22:02:48.917Z,2.73
2017-08-21T22:05:17.405Z,3.47
2017-08-21T22:07:50.932Z,3.27
2017-08-21T22:10:22.370Z,3.40
2017-08-21T22:12:54.217Z,3.13
2017-08-21T22:15:24.479Z,2.83
2017-08-21T22:17:53.167Z,2.77
2017-08-21T22:20:21.767Z,2.40
2017-08-21T22:22:50.347Z,2.93
2017-08-21T22:25:19.103Z,2.90
2017-08-21T22:27:47.624Z,2.80
2017-08-21T22:30:16.174Z,2.70
2017-08-21T22:32:44.671Z,2.10
2017-08-21T22:35:13.187Z,2.50
2017-08-21T22:37:42.626Z,2.77
2017-08-21T22:40:14.278Z,2.47
2017-08-21T22:42:43.923Z,3.73
2017-08-21T22:47:48.196Z,3.67
2017-08-21T22:50:16.939Z,3.03
2017-08-21T22:52:45.519Z,3.20
2017-08-21T22:55:18.016Z,2.87
2017-08-21T22:57:51.476Z,3.07
2017-08-21T23:00:20.743Z,2.93
2017-08-21T23:02:51.238Z,3.07
2017-08-21T23:05:19.767Z,2.70
2017-08-21T23:07:48.298Z,4.10
2017-08-21T23:10:16.804Z,2.60
2017-08-21T23:12:46.049Z,3.37
2017-08-21T23:15:14.582Z,3.27
2017-08-21T23:17:43.349Z,2.60
2017-08-21T23:20:12.126Z,3.05
2017-08-21T23:22:43.651Z,3.33
2017-08-21T23:25:12.141Z,4.20
2017-08-21T23:27:40.614Z,3.10
2017-08-21T23:30:09.088Z,2.90
2017-08-21T23:32:37.544Z,3.40
2017-08-21T23:35:06.035Z,3.40
2017-08-21T23:37:34.574Z,3.30
2017-08-21T23:40:03.064Z,3.47
2017-08-21T23:42:31.608Z,3.00
2017-08-21T23:45:00.115Z,2.80
2017-08-21T23:47:28.569Z,3.00
2017-08-21T23:49:57.053Z,3.57
2017-08-21T23:52:25.586Z,2.63
2017-08-21T23:54:54.084Z,2.70
2017-08-21T23:57:22.593Z,2.60
2017-08-21T23:59:51.079Z,3.27
